AAL2360 KTUL-KDFW
Flight info
| Callsign | AAL2360 |
|---|---|
| Flight time | N/A |
| Altitude | 32000 |
| Route | PEJAY AXXEE BRDJE5 |
| Aircraft | A320/M-SDE3FGHIRWY/LB1 |
Departure
| Time | N/A |
|---|---|
| Airport | Tulsa International Airport (KTUL) |
Arrival
| Time | 2026-05-06 02:31 |
|---|---|
| Airport | Dallas Fort Worth International Airport (KDFW) |
| Time | Latitude | Longitude | Altitude | Speed | Heading |
|---|---|---|---|---|---|
| 2026-05-06 02:04 | 33.92078 | -96.05625 | 31135 ft | 385 kts | 211° |
| 2026-05-06 02:04 | 33.89550 | -96.06716 | 30897 ft | 386 kts | 211° |
| 2026-05-06 02:05 | 33.87018 | -96.07810 | 30664 ft | 386 kts | 211° |
| 2026-05-06 02:05 | 33.84484 | -96.08904 | 30453 ft | 387 kts | 211° |
| 2026-05-06 02:05 | 33.81948 | -96.09999 | 30142 ft | 388 kts | 211° |
| 2026-05-06 02:05 | 33.79408 | -96.11089 | 29468 ft | 389 kts | 210° |
| 2026-05-06 02:06 | 33.76849 | -96.12179 | 28902 ft | 390 kts | 210° |
| 2026-05-06 02:06 | 33.74331 | -96.13245 | 28285 ft | 388 kts | 210° |
| 2026-05-06 02:06 | 33.71791 | -96.14315 | 27692 ft | 385 kts | 210° |
| 2026-05-06 02:06 | 33.69270 | -96.15372 | 27116 ft | 382 kts | 210° |
| 2026-05-06 02:07 | 33.66772 | -96.16424 | 26547 ft | 379 kts | 210° |
| 2026-05-06 02:07 | 33.64296 | -96.17469 | 25992 ft | 376 kts | 210° |
| 2026-05-06 02:07 | 33.61836 | -96.18509 | 25440 ft | 374 kts | 210° |
| 2026-05-06 02:07 | 33.59392 | -96.19543 | 24887 ft | 371 kts | 210° |
| 2026-05-06 02:08 | 33.56964 | -96.20573 | 24362 ft | 369 kts | 210° |
| 2026-05-06 02:08 | 33.54550 | -96.21600 | 23846 ft | 367 kts | 210° |
| 2026-05-06 02:08 | 33.52145 | -96.22619 | 23302 ft | 366 kts | 209° |
| 2026-05-06 02:08 | 33.49744 | -96.23633 | 22781 ft | 366 kts | 209° |
| 2026-05-06 02:09 | 33.47366 | -96.24670 | 22322 ft | 360 kts | 212° |
| 2026-05-06 02:09 | 33.45188 | -96.26043 | 21865 ft | 348 kts | 220° |
| 2026-05-06 02:09 | 33.43299 | -96.27789 | 21442 ft | 339 kts | 229° |
| 2026-05-06 02:09 | 33.41700 | -96.29830 | 21036 ft | 333 kts | 234° |
| 2026-05-06 02:10 | 33.40192 | -96.31926 | 20629 ft | 331 kts | 233° |
| 2026-05-06 02:10 | 33.38694 | -96.33989 | 20366 ft | 323 kts | 233° |
| 2026-05-06 02:10 | 33.37229 | -96.35998 | 19969 ft | 319 kts | 233° |
| 2026-05-06 02:10 | 33.35773 | -96.37994 | 19448 ft | 318 kts | 233° |
| 2026-05-06 02:11 | 33.34323 | -96.39983 | 19023 ft | 315 kts | 233° |
| 2026-05-06 02:11 | 33.32908 | -96.41928 | 18608 ft | 311 kts | 233° |
| 2026-05-06 02:11 | 33.31503 | -96.43873 | 18156 ft | 309 kts | 233° |
| 2026-05-06 02:11 | 33.30121 | -96.45809 | 17662 ft | 306 kts | 233° |
| 2026-05-06 02:12 | 33.28748 | -96.47738 | 17205 ft | 302 kts | 233° |
| 2026-05-06 02:12 | 33.27393 | -96.49643 | 16758 ft | 299 kts | 233° |
| 2026-05-06 02:12 | 33.26025 | -96.51507 | 16491 ft | 301 kts | 232° |
| 2026-05-06 02:12 | 33.24619 | -96.53373 | 16246 ft | 303 kts | 231° |
| 2026-05-06 02:13 | 33.23193 | -96.55247 | 16056 ft | 305 kts | 231° |
| 2026-05-06 02:13 | 33.21768 | -96.57116 | 15805 ft | 304 kts | 231° |
| 2026-05-06 02:13 | 33.20359 | -96.58963 | 15539 ft | 297 kts | 231° |
| 2026-05-06 02:13 | 33.18981 | -96.60769 | 15225 ft | 292 kts | 231° |
| 2026-05-06 02:14 | 33.17599 | -96.62585 | 14912 ft | 290 kts | 231° |
| 2026-05-06 02:14 | 33.16288 | -96.64353 | 14545 ft | 288 kts | 232° |
| 2026-05-06 02:14 | 33.14973 | -96.66159 | 14184 ft | 288 kts | 232° |
| 2026-05-06 02:14 | 33.13666 | -96.67966 | 13819 ft | 287 kts | 232° |
| 2026-05-06 02:15 | 33.12364 | -96.69766 | 13432 ft | 286 kts | 232° |
| 2026-05-06 02:15 | 33.11083 | -96.71525 | 13285 ft | 276 kts | 232° |
| 2026-05-06 02:15 | 33.09848 | -96.73218 | 13152 ft | 265 kts | 232° |
| 2026-05-06 02:15 | 33.08670 | -96.74827 | 12990 ft | 257 kts | 232° |
| 2026-05-06 02:16 | 33.07508 | -96.76419 | 12728 ft | 252 kts | 232° |
| 2026-05-06 02:16 | 33.06362 | -96.77988 | 12473 ft | 250 kts | 232° |
| 2026-05-06 02:16 | 33.05219 | -96.79548 | 12219 ft | 250 kts | 232° |
| 2026-05-06 02:16 | 33.04070 | -96.81110 | 12070 ft | 250 kts | 232° |
| 2026-05-06 02:17 | 33.02925 | -96.82662 | 12029 ft | 250 kts | 232° |
| 2026-05-06 02:17 | 33.01775 | -96.84217 | 12035 ft | 251 kts | 232° |
| 2026-05-06 02:17 | 33.00624 | -96.85768 | 12029 ft | 246 kts | 232° |
| 2026-05-06 02:17 | 32.99523 | -96.87248 | 12032 ft | 232 kts | 232° |
| 2026-05-06 02:18 | 32.98481 | -96.88649 | 12033 ft | 219 kts | 232° |
| 2026-05-06 02:18 | 32.97344 | -96.89808 | 12031 ft | 217 kts | 215° |
| 2026-05-06 02:18 | 32.95910 | -96.90382 | 12025 ft | 229 kts | 195° |
| 2026-05-06 02:18 | 32.94823 | -96.90478 | 12033 ft | 233 kts | 193° |
| 2026-05-06 02:19 | 32.92678 | -96.90635 | 12035 ft | 233 kts | 193° |
| 2026-05-06 02:19 | 32.91054 | -96.90752 | 12016 ft | 234 kts | 193° |
| 2026-05-06 02:19 | 32.89431 | -96.90869 | 12015 ft | 234 kts | 193° |
| 2026-05-06 02:19 | 32.87808 | -96.90988 | 12015 ft | 234 kts | 193° |
| 2026-05-06 02:20 | 32.85102 | -96.91185 | 12015 ft | 234 kts | 193° |
| 2026-05-06 02:20 | 32.83476 | -96.91299 | 11920 ft | 233 kts | 193° |
| 2026-05-06 02:20 | 32.81867 | -96.91413 | 11519 ft | 232 kts | 193° |
| 2026-05-06 02:21 | 32.80243 | -96.91533 | 11001 ft | 235 kts | 192° |
| 2026-05-06 02:21 | 32.78601 | -96.91619 | 10555 ft | 237 kts | 189° |
| 2026-05-06 02:21 | 32.76952 | -96.91633 | 10124 ft | 238 kts | 188° |
| 2026-05-06 02:21 | 32.75287 | -96.91622 | 9686 ft | 239 kts | 187° |
| 2026-05-06 02:22 | 32.73628 | -96.91608 | 9240 ft | 239 kts | 187° |
| 2026-05-06 02:22 | 32.71972 | -96.91593 | 8827 ft | 237 kts | 187° |
| 2026-05-06 02:22 | 32.70330 | -96.91584 | 8415 ft | 235 kts | 186° |
| 2026-05-06 02:22 | 32.68707 | -96.91578 | 7955 ft | 234 kts | 185° |
| 2026-05-06 02:23 | 32.67077 | -96.91576 | 7536 ft | 233 kts | 185° |
| 2026-05-06 02:23 | 32.65466 | -96.91572 | 7137 ft | 231 kts | 184° |
| 2026-05-06 02:23 | 32.63864 | -96.91570 | 6750 ft | 229 kts | 184° |
| 2026-05-06 02:23 | 32.62276 | -96.91569 | 6356 ft | 227 kts | 183° |
| 2026-05-06 02:24 | 32.60730 | -96.91747 | 5925 ft | 221 kts | 203° |
| 2026-05-06 02:24 | 32.59526 | -96.92795 | 5490 ft | 217 kts | 235° |
| 2026-05-06 02:24 | 32.59050 | -96.94465 | 5078 ft | 218 kts | 268° |
| 2026-05-06 02:24 | 32.59184 | -96.96280 | 5044 ft | 226 kts | 272° |
| 2026-05-06 02:25 | 32.59341 | -96.98125 | 4841 ft | 225 kts | 274° |
| 2026-05-06 02:25 | 32.59859 | -96.99871 | 4505 ft | 230 kts | 304° |
| 2026-05-06 02:25 | 32.61034 | -97.01179 | 4178 ft | 234 kts | 320° |
| 2026-05-06 02:25 | 32.62376 | -97.02256 | 4008 ft | 234 kts | 333° |
| 2026-05-06 02:26 | 32.63957 | -97.02740 | 4061 ft | 238 kts | 357° |
| 2026-05-06 02:26 | 32.65619 | -97.02745 | 4047 ft | 238 kts | 359° |
| 2026-05-06 02:26 | 32.67221 | -97.02729 | 4042 ft | 222 kts | 359° |
| 2026-05-06 02:26 | 32.68748 | -97.02719 | 4048 ft | 218 kts | 359° |
| 2026-05-06 02:27 | 32.70248 | -97.02711 | 3912 ft | 220 kts | 1° |
| 2026-05-06 02:27 | 32.71760 | -97.02703 | 3692 ft | 214 kts | 2° |
| 2026-05-06 02:27 | 32.73235 | -97.02696 | 3398 ft | 211 kts | 2° |
| 2026-05-06 02:27 | 32.74695 | -97.02688 | 3124 ft | 208 kts | 2° |
| 2026-05-06 02:28 | 32.76123 | -97.02680 | 2861 ft | 202 kts | 2° |
| 2026-05-06 02:28 | 32.77503 | -97.02673 | 2605 ft | 192 kts | 3° |
| 2026-05-06 02:28 | 32.78786 | -97.02667 | 2359 ft | 178 kts | 1° |
| 2026-05-06 02:28 | 32.79973 | -97.02660 | 2077 ft | 162 kts | 0° |
| 2026-05-06 02:29 | 32.81033 | -97.02655 | 1902 ft | 146 kts | 2° |
| 2026-05-06 02:29 | 32.82017 | -97.02654 | 1695 ft | 138 kts | 0° |
| 2026-05-06 02:29 | 32.82969 | -97.02649 | 1534 ft | 139 kts | 3° |
| 2026-05-06 02:29 | 32.83929 | -97.02642 | 1356 ft | 137 kts | 1° |
| 2026-05-06 02:30 | 32.84884 | -97.02638 | 1199 ft | 136 kts | 359° |
| 2026-05-06 02:30 | 32.85830 | -97.02632 | 1000 ft | 137 kts | 358° |
| 2026-05-06 02:30 | 32.86776 | -97.02628 | 823 ft | 137 kts | 359° |
| 2026-05-06 02:30 | 32.87712 | -97.02620 | 649 ft | 134 kts | 359° |
| 2026-05-06 02:31 | 32.88604 | -97.02611 | 575 ft | 114 kts | 360° |
| 2026-05-06 02:31 | 32.89223 | -97.02610 | 572 ft | 65 kts | 0° |
| 2026-05-06 02:31 | 32.89525 | -97.02610 | 570 ft | 38 kts | 0° |
| 2026-05-06 02:31 | 32.89757 | -97.02615 | 570 ft | 28 kts | 352° |
| 2026-05-06 02:32 | 32.89909 | -97.02668 | 571 ft | 17 kts | 335° |
| 2026-05-06 02:32 | 32.90001 | -97.02728 | 576 ft | 13 kts | 330° |
| 2026-05-06 02:32 | 32.90041 | -97.02756 | 576 ft | 0 kts | 330° |
| 2026-05-06 02:32 | 32.90043 | -97.02757 | 575 ft | 1 kts | 330° |
| 2026-05-06 02:33 | 32.90054 | -97.02764 | 576 ft | 3 kts | 330° |
| 2026-05-06 02:33 | 32.90071 | -97.02775 | 576 ft | 7 kts | 332° |
| 2026-05-06 02:34 | 32.90374 | -97.02799 | 579 ft | 12 kts | 0° |
| 2026-05-06 02:34 | 32.90450 | -97.02811 | 576 ft | 11 kts | 324° |
| 2026-05-06 02:34 | 32.90464 | -97.02865 | 576 ft | 0 kts | 271° |
| 2026-05-06 02:35 | 32.90464 | -97.02866 | 576 ft | 1 kts | 271° |
| 2026-05-06 02:35 | 32.90465 | -97.02939 | 577 ft | 16 kts | 270° |
| 2026-05-06 02:35 | 32.90466 | -97.03077 | 573 ft | 16 kts | 270° |
| 2026-05-06 02:36 | 32.90467 | -97.03212 | 576 ft | 16 kts | 270° |
| 2026-05-06 02:36 | 32.90467 | -97.03317 | 585 ft | 10 kts | 269° |
| 2026-05-06 02:36 | 32.90446 | -97.03390 | 586 ft | 10 kts | 234° |
| 2026-05-06 02:36 | 32.90389 | -97.03418 | 587 ft | 9 kts | 185° |
| 2026-05-06 02:37 | 32.90344 | -97.03450 | 587 ft | 6 kts | 262° |
| 2026-05-06 02:37 | 32.90363 | -97.03488 | 587 ft | 3 kts | 313° |
| 2026-05-06 02:37 | 32.90377 | -97.03507 | 587 ft | 2 kts | 312° |
| 2026-05-06 02:37 | 32.90384 | -97.03516 | 587 ft | 1 kts | 312° |
| 2026-05-06 02:38 | 32.90386 | -97.03518 | 587 ft | 0 kts | 312° |